South Boston, VA

1:42 PM EDT on September 16, 2014 (GMT -0400)
Alton community | Change Station
CLOSE
Current Station
Personal Weather Station
Location: Alton, VA
Elevation: 558 ft
Nearby Weather Stations

Elev 558 ft 36.58 °N, 79.02 °W | Updated 8 minutes ago

Partly Cloudy
Partly Cloudy
85.3 °F
Feels Like 88 °F
N
1.7
Wind Variable Wind from SSW

Today
High -- | Low -- °F
--% Chance of Precip.
Yesterday
High -- | Low -- °F
Precip. -- in
6:58 AM 7:21 PM
Last Quarter, 44% visible
Pressure 30.00 in
Visibility 10.0 miles
Clouds Scattered Clouds 4500 ft
Heat Index 88 °F
Dew Point 67 °F
Humidity 54%
Rainfall 0.00 in
Snow Depth Not available.
UV 7 out of 12
Pollen 7.50 out of 12
Air Quality Not available.
Flu Activity Not available.
METAR KDAN 161653Z AUTO 00000KT 10SM SCT045 26/16 A3003 RMK AO2 SLP159 T02610161

More Conditions Fewer Conditions

Pressure 30.00 in
Visibility 10.0 miles
Clouds Scattered Clouds 4500 ft
Heat Index 88 °F
Dew Point 67 °F
Humidity 54%
Rainfall 0.00 in
Snow Depth Not available.
UV 7 out of 12
Pollen 7.50 out of 12
Air Quality Not available.
Flu Activity Not available.
METAR KDAN 161653Z AUTO 00000KT 10SM SCT045 26/16 A3003 RMK AO2 SLP159 T02610161

More Conditions Fewer Conditions

10-Day Weather Forecast

Almanac

Astronomy

Sep. 16, 2014 Rise Set
Actual Time 6:58 AM EDT 7:21 PM EDT
Civil Twilight 6:32 AM EDT 7:47 PM EDT
Nautical Twilight 6:02 AM EDT 8:17 PM EDT
Astronomical Twilight 5:31 AM EDT 8:48 PM EDT
Moon 12:13 AM EDT 2:37 PM EDT
Length of Visible Light 13h 14m
Length of Day
12h 22m
Tomorrow will be 2m 19s shorter.
Last Quarter, 44% of the Moon is Illuminated
Today
Last Quarter
Sep 24
New
Oct 1
First Quarter
Oct 8
Full
Oct 15
Last Quarter

Today's Extremes

State Highs State Lows

Community

WunderPhotos

Upload Photos

1,753,843 photos uploaded!

Nearby

Snow Depth

Station Depth Elevation
No new snow has been reported.

Earthquake Activity

City Distance Mag. Time & Date
No recent earthquake activity has been reported nearby.
Minimum magnitude displayed is 2.5.

Coastal Water Temperatures

Place Temperature
No Stations Reporting

Nearby Weather Stations